Time;durP1;ratioP1;P1;durP2;ratioP2;P2;SDS_P1;SDS_P2;PMS_P1;PMS_P2;Temp;Humidity;BMP_temperature;BMP_pressure;BME280_temperature;BME280_humidity;BME280_pressure;Samples;Min_cycle;Max_cycle;Signal;HPM_P1;HPM_P2
2022/10/03 00:01:11;;;;;;;8.30;3.95;;;19.20;97.50;;;19.03;74.67;98462.41;5103596;28;20411;-73
2022/10/03 00:03:54;;;;;;;6.72;3.75;;;19.20;97.50;;;19.03;74.77;98467.09;5104797;28;20040;-73
2022/10/03 00:06:46;;;;;;;5.80;3.72;;;19.20;97.50;;;19.02;75.25;98473.72;5077664;28;20047;-73
2022/10/03 00:09:23;;;;;;;;;;;19.20;97.60;;;19.06;75.69;98467.22;5105669;28;20406;-73
2022/10/03 00:11:59;;;;;;;8.27;5.07;;;19.20;97.70;;;19.02;75.43;98473.72;5102682;28;19924;-73
2022/10/03 00:15:09;;;;;;;7.65;4.28;;;19.20;97.60;;;19.04;74.85;98465.97;5103481;28;20049;-73
2022/10/03 00:17:53;;;;;;;8.55;4.82;;;19.20;97.50;;;19.05;74.66;98481.31;5101639;28;20595;-73
2022/10/03 00:21:14;;;;;;;8.85;4.22;;;19.20;97.40;;;19.02;74.73;98476.47;5103119;28;20044;-73
2022/10/03 00:24:06;;;;;;;7.50;4.22;;;19.20;97.50;;;19.04;75.17;98465.97;5084032;28;20084;-73
2022/10/03 00:26:53;;;;;;;7.00;3.83;;;19.20;97.50;;;19.02;75.43;98468.25;5102948;28;20052;-73
2022/10/03 00:29:48;;;;;;;7.50;4.22;;;19.20;97.60;;;19.02;74.84;98471.00;5102971;28;20124;-74
2022/10/03 00:32:56;;;;;;;8.13;3.97;;;19.20;97.50;;;19.03;74.65;98462.41;5100158;28;20039;-73
2022/10/03 00:36:07;;;;;;;8.48;3.83;;;19.20;97.50;;;19.05;74.19;98460.09;5101775;28;20132;-73
2022/10/03 00:38:50;;;;;;;6.60;4.55;;;19.20;97.40;;;19.02;74.96;98462.75;5091954;27;20057;-73
2022/10/03 00:41:45;;;;;;;6.03;3.70;;;19.20;97.50;;;19.04;75.17;98463.22;5103750;28;20063;-73
2022/10/03 00:44:28;;;;;;;7.03;3.90;;;19.20;97.60;;;19.03;75.06;98456.09;5107023;28;20383;-73
2022/10/03 00:47:19;;;;;;;6.32;3.92;;;19.20;97.50;;;19.03;74.72;98456.09;5103876;28;20040;-73
2022/10/03 00:50:18;;;;;;;6.38;3.28;;;19.20;97.50;;;18.99;74.69;98455.97;5105170;28;20462;-73
2022/10/03 00:53:36;;;;;;;6.45;3.30;;;19.20;97.50;;;19.02;74.67;98451.75;5105588;28;20093;-73
2022/10/03 00:56:20;;;;;;;7.18;3.90;;;19.20;97.40;;;19.04;75.17;98457.72;5084559;28;20132;-73
2022/10/03 00:59:43;;;;;;;5.65;3.70;;;19.20;97.60;;;19.01;75.40;98456.44;5098510;28;20048;-73
2022/10/03 01:02:38;;;;;;;4.50;3.38;;;19.20;97.60;;;19.04;74.64;98452.22;5105076;27;20048;-74
2022/10/03 01:05:52;;;;;;;5.45;3.92;;;19.20;97.50;;;19.03;74.70;98453.34;5087455;27;20102;-73
2022/10/03 01:08:18;;;;;;;5.95;4.00;;;19.20;97.50;;;19.02;74.30;98446.25;5101889;28;20048;-73
2022/10/03 01:10:54;;;;;;;4.85;3.22;;;19.20;97.40;;;19.03;74.94;98445.09;5103360;28;20123;-73
2022/10/03 01:13:54;;;;;;;5.15;3.30;;;19.20;97.60;;;19.02;75.23;98440.75;5104594;28;20042;-73
2022/10/03 01:16:57;;;;;;;6.15;3.80;;;19.20;97.50;;;19.04;74.84;98438.47;5102058;28;20103;-73
2022/10/03 01:19:44;;;;;;;6.80;3.47;;;19.20;97.50;;;19.03;74.57;98439.59;5101741;28;20047;-73
2022/10/03 01:22:44;;;;;;;5.72;3.03;;;19.20;97.40;;;19.02;74.04;98432.50;5103980;28;20040;-73
2022/10/03 01:25:19;;;;;;;5.20;3.53;;;19.20;97.40;;;19.01;74.61;98430.91;5104538;28;20048;-73
2022/10/03 01:31:00;;;;;;;5.40;3.30;;;19.20;97.50;;;19.00;75.24;98430.09;5104875;28;20048;-73
2022/10/03 01:33:48;;;;;;;4.57;2.95;;;19.20;97.60;;;19.01;74.90;98428.16;5086180;28;20036;-73
2022/10/03 01:36:29;;;;;;;5.97;3.20;;;19.20;97.40;;;19.03;74.28;98425.84;5101188;28;20118;-73
2022/10/03 01:39:25;;;;;;;6.72;3.30;;;19.20;97.40;;;19.01;74.40;98426.22;5091246;28;20516;-73
2022/10/03 01:42:28;;;;;;;6.22;3.35;;;19.20;97.40;;;18.98;74.79;98437.06;5088134;28;20040;-73
2022/10/03 01:45:24;;;;;;;5.45;3.60;;;19.20;97.40;;;18.98;75.11;98443.38;5104352;28;20041;-73
2022/10/03 01:48:05;;;;;;;5.05;3.13;;;19.20;97.60;;;18.99;75.20;98438.69;5100683;28;20097;-73
2022/10/03 01:50:53;;;;;;;6.57;3.28;;;19.10;97.60;;;19.00;74.58;98438.31;5069018;28;20051;-73
2022/10/03 01:53:41;;;;;;;6.60;3.67;;;19.20;97.50;;;19.01;74.67;98433.66;5098574;28;20562;-73
2022/10/03 01:56:31;;;;;;;4.75;3.05;;;19.20;97.40;;;19.00;74.42;98432.84;5105250;28;20036;-73
2022/10/03 01:59:07;;;;;;;4.30;2.53;;;19.20;97.40;;;19.02;74.44;98440.75;5102675;28;20032;-73
2022/10/03 02:02:24;;;;;;;6.93;2.95;;;19.20;97.50;;;19.03;74.89;98426.69;5089829;28;20044;-73
2022/10/03 02:05:22;;;;;;;5.07;3.58;;;19.20;97.60;;;18.97;74.83;98432.72;5099883;28;20048;-73
2022/10/03 02:08:04;;;;;;;5.40;3.15;;;19.20;97.40;;;19.00;74.47;98434.78;5107656;28;20047;-73
2022/10/03 02:10:53;;;;;;;5.30;2.83;;;19.20;97.40;;;19.03;74.05;98434.09;5083962;28;20518;-73
2022/10/03 02:13:30;;;;;;;5.18;2.83;;;19.20;97.40;;;19.00;74.05;98437.53;5108117;28;20122;-73
2022/10/03 02:16:07;;;;;;;5.03;2.50;;;19.20;97.30;;;19.01;74.73;98436.41;5089018;28;20093;-73
2022/10/03 02:19:10;;;;;;;5.93;3.22;;;19.20;97.50;;;19.00;75.31;98432.84;5101194;28;20047;-73
2022/10/03 02:21:49;;;;;;;3.95;2.50;;;19.20;97.60;;;19.00;74.39;98440.28;5083565;28;20471;-73
2022/10/03 02:24:16;;;;;;;3.92;2.58;;;19.20;97.40;;;19.00;74.43;98435.56;5071765;28;20120;-73
2022/10/03 02:27:01;;;;;;;4.93;3.10;;;19.00;97.30;;;19.01;74.20;98436.41;5100141;28;20036;-73
2022/10/03 02:29:55;;;;;;;6.43;3.25;;;19.20;97.40;;;18.99;74.13;98435.94;5101978;28;20068;-73
2022/10/03 02:32:34;;;;;;;6.05;3.28;;;19.10;97.30;;;18.99;74.69;98436.72;5075554;28;20046;-73
2022/10/03 02:35:37;;;;;;;4.13;2.67;;;19.20;97.50;;;19.00;74.62;98440.28;5103042;28;20047;-73
2022/10/03 02:38:40;;;;;;;3.92;2.58;;;19.20;97.50;;;19.01;74.23;98433.66;5101226;28;20040;-73
2022/10/03 02:41:31;;;;;;;5.55;2.63;;;19.20;97.40;;;18.98;74.12;98437.88;5102562;28;20069;-73
2022/10/03 02:44:45;;;;;;;4.22;3.15;;;19.20;97.40;;;18.98;74.21;98431.56;5101248;28;20043;-73
2022/10/03 02:47:42;;;;;;;3.97;2.25;;;19.20;97.30;;;18.99;74.44;98431.22;5101596;28;20413;-73
2022/10/03 02:50:32;;;;;;;4.05;2.78;;;19.20;97.40;;;18.97;74.78;98428.00;5107207;28;20040;-73
2022/10/03 02:53:26;;;;;;;5.47;2.33;;;19.20;97.50;;;19.00;74.08;98430.09;5101023;28;20044;-73
2022/10/03 02:56:14;;;;;;;3.00;2.55;;;19.20;97.40;;;18.97;74.28;98427.22;5097932;28;20047;-73
2022/10/03 02:59:17;;;;;;;4.40;3.08;;;19.10;97.30;;;18.97;74.03;98428.00;5107536;28;20047;-73
2022/10/03 03:02:14;;;;;;;3.72;2.70;;;19.10;97.30;;;18.98;74.03;98426.06;5096074;28;20063;-73
2022/10/03 03:04:58;;;;;;;6.25;3.00;;;19.20;97.40;;;18.98;74.89;98434.31;5104864;28;20035;-73
2022/10/03 03:07:37;;;;;;;4.15;2.70;;;19.20;97.60;;;18.96;74.72;98429.16;5107821;28;20039;-73
2022/10/03 03:10:30;;;;;;;3.95;2.08;;;19.20;97.50;;;18.98;74.60;98434.31;5106646;28;20451;-73
2022/10/03 03:13:21;;;;;;;5.10;3.03;;;19.20;97.40;;;18.98;73.99;98437.06;5105980;28;20040;-73
2022/10/03 03:16:13;;;;;;;3.70;2.80;;;19.10;97.30;;;18.98;74.14;98432.38;5104052;28;20036;-73
2022/10/03 03:18:58;;;;;;;3.78;2.42;;;19.20;97.30;;;18.97;74.31;98425.28;5111660;28;20062;-73
2022/10/03 03:21:52;;;;;;;7.75;3.28;;;19.20;97.40;;;18.98;74.77;98432.38;5104464;28;20036;-73
2022/10/03 03:24:59;;;;;;;4.30;2.58;;;19.20;97.50;;;19.01;74.51;98428.16;5102087;28;20491;-74
2022/10/03 03:27:41;;;;;;;3.85;2.70;;;19.20;97.50;;;18.98;74.24;98426.06;5106317;28;20476;-73
2022/10/03 03:30:12;;;;;;;;;;;19.20;97.30;;;18.96;73.94;98428.38;5111461;28;20050;-73
2022/10/03 03:32:47;;;;;;;4.82;2.58;;;19.20;97.20;;;18.95;74.16;98430.28;5101994;28;19973;-73
2022/10/03 03:36:15;;;;;;;2.75;2.35;;;19.20;97.30;;;18.95;74.99;98433.03;5101486;28;20036;-73
2022/10/03 03:39:11;;;;;;;3.13;2.42;;;19.20;97.50;;;18.95;74.85;98427.53;5090805;28;20040;-73
2022/10/03 03:42:12;;;;;;;5.00;2.15;;;19.20;97.50;;;18.96;74.44;98428.38;5097678;28;20164;-73
2022/10/03 03:44:44;;;;;;;4.90;3.03;;;19.10;97.30;;;18.98;73.91;98424.16;5106091;28;20541;-73
2022/10/03 03:47:41;;;;;;;4.78;2.45;;;19.20;97.30;;;18.97;74.06;98422.53;5108799;28;20608;-73
2022/10/03 03:50:57;;;;;;;4.35;2.40;;;19.20;97.30;;;18.94;74.01;98420.44;5103172;28;20153;-74
2022/10/03 03:53:32;;;;;;;4.45;2.15;;;19.20;97.30;;;18.97;73.15;98425.28;5100856;28;20036;-74
2022/10/03 03:56:16;;;;;;;2.55;1.75;;;19.10;97.20;;;18.98;72.70;98420.56;5102604;28;20478;-73
2022/10/03 03:59:20;;;;;;;5.72;2.00;;;19.10;97.20;;;18.95;72.30;98421.25;5100905;28;20054;-73
2022/10/03 04:02:10;;;;;;;2.15;1.58;;;19.10;97.10;;;18.95;71.96;98422.03;5103119;28;20560;-73
2022/10/03 04:04:50;;;;;;;1.83;1.55;;;19.10;97.00;;;18.93;72.91;98418.84;5099294;28;20040;-73
2022/10/03 04:07:48;;;;;;;2.38;1.77;;;19.10;97.20;;;18.96;73.00;98426.41;5098724;28;20043;-73
2022/10/03 04:10:52;;;;;;;2.70;1.77;;;19.10;97.20;;;18.95;71.81;98424.78;5105780;28;20035;-73
2022/10/03 04:13:27;;;;;;;4.10;2.65;;;19.10;97.00;;;18.97;71.31;98414.28;5100563;28;20047;-73
2022/10/03 04:19:38;;;;;;;3.13;1.90;;;19.00;96.80;;;18.90;71.72;98421.47;5105567;28;20085;-74
2022/10/03 04:22:28;;;;;;;3.78;2.67;;;19.10;97.00;;;18.90;71.94;98427.75;5087137;28;20035;-73
2022/10/03 04:25:21;;;;;;;3.15;1.83;;;19.10;97.00;;;18.93;71.50;98418.03;5102741;28;20394;-73
2022/10/03 04:28:25;;;;;;;3.45;1.63;;;19.10;96.90;;;18.92;70.68;98416.44;5095332;28;20123;-73
2022/10/03 04:31:15;;;;;;;4.22;2.10;;;19.10;96.80;;;18.90;70.54;98422.25;5101562;28;20094;-75
2022/10/03 04:33:55;;;;;;;4.63;2.08;;;19.00;96.70;;;18.92;70.11;98416.44;5099377;28;20044;-74
2022/10/03 04:36:49;;;;;;;3.55;1.95;;;19.00;96.60;;;18.91;71.04;98412.88;5099468;28;20039;-75
2022/10/03 04:39:42;;;;;;;3.20;1.98;;;19.00;96.90;;;18.90;71.54;98419.50;5084284;28;20440;-75
2022/10/03 04:42:26;;;;;;;2.55;1.77;;;19.10;96.90;;;18.92;70.84;98400.75;5094746;28;20421;-75
2022/10/03 04:45:45;;;;;;;2.10;1.42;;;19.10;96.80;;;18.90;70.01;98407.72;5097819;28;20077;-75
2022/10/03 04:48:37;;;;;;;2.38;1.52;;;19.10;96.60;;;18.89;69.62;98408.88;5082145;28;20126;-75
2022/10/03 04:51:34;;;;;;;2.83;2.20;;;19.10;96.50;;;18.92;69.70;98408.19;5059936;28;20112;-75
2022/10/03 04:54:14;;;;;;;5.78;2.20;;;19.00;96.50;;;18.87;70.67;98410.00;5098687;28;20080;-75
2022/10/03 04:57:04;;;;;;;4.40;3.00;;;19.10;96.70;;;18.87;71.05;98410.00;5083696;28;20044;-75
2022/10/03 05:00:03;;;;;;;3.33;1.90;;;19.10;96.80;;;18.87;69.77;98409.19;5082839;28;20544;-75
2022/10/03 05:02:43;;;;;;;1.95;1.60;;;19.10;96.50;;;18.88;69.31;98413.56;5090476;28;20550;-75
2022/10/03 05:05:50;;;;;;;2.83;2.30;;;19.00;96.50;;;18.87;69.20;98409.19;5095204;28;20047;-75
2022/10/03 05:08:48;;;;;;;8.73;3.25;;;19.00;96.30;;;18.89;69.67;98423.41;5096849;28;20040;-75
2022/10/03 05:11:39;;;;;;;7.05;2.67;;;19.00;96.60;;;18.89;69.86;98423.41;5083741;28;20111;-75
2022/10/03 05:14:25;;;;;;;5.07;3.08;;;19.00;96.60;;;18.87;69.60;98412.75;5100355;28;20468;-75
2022/10/03 05:17:32;;;;;;;6.60;2.30;;;19.00;96.50;;;18.89;68.98;98411.63;5085468;28;20072;-75
2022/10/03 05:20:30;;;;;;;4.53;2.47;;;19.00;96.40;;;18.90;68.40;98418.72;5072620;28;20056;-75
2022/10/03 05:23:17;;;;;;;4.32;2.63;;;19.00;96.30;;;18.90;68.32;98435.19;5098925;28;20047;-75
2022/10/03 05:26:08;;;;;;;17.17;5.03;;;19.00;96.30;;;18.89;69.00;98425.38;5104767;27;20044;-75
2022/10/03 05:29:24;;;;;;;8.75;4.07;;;19.00;96.40;;;18.90;69.18;98418.72;5101089;28;20039;-75
2022/10/03 05:32:12;;;;;;;8.18;3.35;;;19.00;96.50;;;18.92;68.03;98430.97;5079870;28;20059;-75
2022/10/03 05:34:45;;;;;;;6.00;2.88;;;19.00;96.30;;;18.90;67.93;98427.75;5095111;28;20039;-75
2022/10/03 05:37:45;;;;;;;6.68;2.78;;;19.00;96.30;;;18.85;67.94;98419.72;5096173;28;20044;-75
2022/10/03 05:40:26;;;;;;;7.10;2.50;;;18.90;96.20;;;18.86;67.86;98433.13;5098774;28;20047;-75
2022/10/03 05:43:40;;;;;;;5.57;3.72;;;19.00;96.30;;;18.90;68.27;98435.19;5085414;28;20039;-75
2022/10/03 05:46:32;;;;;;;5.90;3.40;;;19.00;96.40;;;18.92;68.28;98430.97;5097655;28;20057;-75
2022/10/03 05:49:43;;;;;;;5.20;2.92;;;19.10;96.30;;;18.93;67.50;98426.28;5097383;28;20445;-74
2022/10/03 05:52:21;;;;;;;6.65;3.53;;;19.10;96.20;;;18.91;67.23;98431.34;5097096;28;20044;-75
2022/10/03 05:55:20;;;;;;;6.80;3.33;;;19.00;96.10;;;18.90;67.47;98429.72;5103682;28;20089;-75
2022/10/03 05:58:31;;;;;;;11.35;3.85;;;19.00;96.10;;;18.92;67.53;98438.44;5071055;28;20079;-75
2022/10/03 06:01:46;;;;;;;16.42;3.63;;;19.10;96.20;;;18.95;67.35;98438.53;5099297;28;20866;-75
2022/10/03 06:04:41;;;;;;;5.55;3.47;;;19.00;96.10;;;18.99;67.67;98439.47;5092207;28;20610;-75
2022/10/03 06:07:17;;;;;;;16.25;4.20;;;19.10;96.30;;;18.99;68.13;98444.19;5099452;28;20479;-74
2022/10/03 06:10:24;;;;;;;8.32;2.97;;;19.10;96.40;;;19.02;67.45;98438.00;5104009;28;20051;-75
2022/10/03 06:13:33;;;;;;;10.65;2.97;;;19.10;96.20;;;19.02;67.18;98449.78;5080723;28;20079;-75
2022/10/03 06:16:22;;;;;;;5.60;3.17;;;19.20;96.20;;;19.04;67.22;98452.22;5097965;28;20141;-75
2022/10/03 06:19:19;;;;;;;7.63;4.15;;;19.20;96.30;;;19.06;67.54;98449.94;5102378;28;20135;-75
2022/10/03 06:22:27;;;;;;;11.50;4.30;;;19.20;96.30;;;19.07;67.46;98452.34;5095355;28;20067;-75
2022/10/03 06:25:10;;;;;;;8.73;3.75;;;19.20;96.30;;;19.08;67.53;98453.13;5096572;28;20489;-74
2022/10/03 06:28:13;;;;;;;9.50;4.80;;;19.20;96.30;;;19.06;67.40;98460.94;5101213;28;20040;-75
2022/10/03 06:31:35;;;;;;;9.52;4.13;;;19.20;96.30;;;19.08;67.58;98461.38;5096445;28;20460;-75
2022/10/03 06:34:40;;;;;;;7.68;3.05;;;19.20;96.20;;;19.13;67.75;98460.38;5097785;28;20364;-75
2022/10/03 06:37:31;;;;;;;9.70;3.78;;;19.20;96.20;;;19.17;67.58;98453.84;5100788;28;20040;-75
2022/10/03 06:40:38;;;;;;;13.45;4.80;;;19.20;96.30;;;19.20;67.55;98463.38;5100812;28;20168;-75
2022/10/03 06:43:36;;;;;;;9.23;5.07;;;19.30;96.40;;;19.19;67.39;98457.06;5098979;28;20036;-75
2022/10/03 06:47:02;;;;;;;8.88;4.07;;;19.30;96.30;;;19.20;67.27;98460.63;5095612;28;20066;-75
2022/10/03 06:49:57;;;;;;;7.45;3.97;;;19.30;96.30;;;19.22;67.01;98458.34;5089153;28;20134;-75
2022/10/03 06:53:13;;;;;;;6.07;3.45;;;19.30;96.20;;;19.28;67.19;98463.31;5099997;28;20751;-75
2022/10/03 06:56:24;;;;;;;13.60;4.43;;;19.40;96.30;;;19.29;67.00;98462.16;5099758;28;20350;-75
2022/10/03 06:59:18;;;;;;;7.82;4.32;;;19.40;96.30;;;19.32;66.92;98468.13;5050132;28;20212;-74
2022/10/03 07:02:40;;;;;;;8.48;3.63;;;19.40;96.30;;;19.32;66.79;98459.88;5099239;28;20051;-74
2022/10/03 07:05:24;;;;;;;8.50;3.95;;;19.40;96.30;;;19.33;66.59;98458.72;5105148;28;20047;-74
2022/10/03 07:08:15;;;;;;;7.28;3.47;;;19.40;96.20;;;19.34;66.98;98461.13;5100208;28;20043;-74
2022/10/03 07:11:06;;;;;;;5.80;4.10;;;19.40;96.30;;;19.41;66.70;98471.56;5098915;28;20047;-75
2022/10/03 07:14:29;;;;;;;9.68;4.97;;;19.40;96.30;;;19.41;66.77;98466.06;5082673;28;20040;-75
2022/10/03 07:17:21;;;;;;;8.68;3.63;;;19.40;96.40;;;19.41;66.56;98475.13;5097528;28;20046;-75
2022/10/03 07:20:47;;;;;;;7.63;3.22;;;19.50;96.30;;;19.45;66.27;98478.81;5095725;28;20098;-75
2022/10/03 07:24:02;;;;;;;10.38;3.95;;;19.50;96.30;;;19.49;66.32;98478.94;5065923;28;20060;-75
2022/10/03 07:26:43;;;;;;;8.18;4.78;;;19.50;96.30;;;19.51;66.40;98479.38;5088769;28;20048;-75
2022/10/03 07:29:30;;;;;;;11.03;4.30;;;19.60;96.40;;;19.49;66.70;98479.75;5099126;28;20415;-75
2022/10/03 07:32:27;;;;;;;10.57;4.22;;;19.50;96.40;;;19.54;66.42;98481.47;5099240;28;20096;-75
2022/10/03 07:35:11;;;;;;;8.57;3.75;;;19.60;96.40;;;19.57;66.30;98480.78;5104644;28;20046;-76
2022/10/03 07:41:14;;;;;;;6.75;3.63;;;19.60;96.30;;;19.61;66.18;98470.69;5095442;28;20127;-75
2022/10/03 07:44:21;;;;;;;7.60;3.90;;;19.60;96.30;;;19.68;65.98;98479.22;5093739;28;20036;-75
2022/10/03 07:47:41;;;;;;;9.23;5.15;;;19.70;96.40;;;19.67;65.74;98483.13;5098725;28;20047;-75
2022/10/03 07:50:16;;;;;;;19.55;5.00;;;19.60;96.30;;;19.71;65.90;98485.97;5099887;28;20050;-75
2022/10/03 07:52:53;;;;;;;14.10;5.00;;;19.60;96.30;;;19.70;65.55;98489.91;5115897;27;20633;-75
2022/10/03 07:55:40;;;;;;;6.68;3.92;;;19.70;96.20;;;19.69;65.85;98491.84;5097454;28;20043;-75
2022/10/03 07:58:25;;;;;;;10.18;4.95;;;19.70;96.30;;;19.76;65.71;98494.03;5099174;28;20458;-75
2022/10/03 08:01:30;;;;;;;10.25;4.07;;;19.70;96.30;;;19.76;66.03;98495.97;5100653;28;20479;-75
2022/10/03 08:04:46;;;;;;;9.52;3.83;;;19.70;96.40;;;19.72;66.17;98502.16;5095837;28;20046;-75
2022/10/03 08:07:54;;;;;;;11.57;5.03;;;19.80;96.30;;;19.71;66.05;98497.78;5097049;28;20096;-75
2022/10/03 08:10:42;;;;;;;8.10;4.22;;;19.80;96.70;;;19.74;65.95;98496.31;5100395;28;20058;-75
2022/10/03 08:13:49;;;;;;;7.65;4.20;;;19.70;96.30;;;19.79;65.89;98498.03;5099055;28;20040;-75
2022/10/03 08:16:51;;;;;;;7.20;3.88;;;19.80;96.30;;;19.80;65.81;98488.66;5100793;28;20114;-75
2022/10/03 08:19:41;;;;;;;7.22;3.97;;;19.80;96.40;;;19.86;65.49;98484.50;5087846;28;20505;-75
2022/10/03 08:22:23;;;;;;;8.95;4.35;;;19.80;96.30;;;19.80;65.75;98500.47;5094828;28;20039;-75
2022/10/03 08:25:01;;;;;;;9.70;4.18;;;19.80;96.30;;;19.82;65.67;98494.59;5098475;28;20176;-75
2022/10/03 08:28:17;;;;;;;8.90;4.72;;;19.80;96.30;;;19.86;65.47;98498.28;5099605;28;20039;-75
2022/10/03 08:31:19;;;;;;;12.00;4.13;;;19.90;96.30;;;19.93;65.32;98493.81;5111883;27;20057;-75
2022/10/03 08:34:32;;;;;;;8.98;4.53;;;19.90;96.30;;;19.91;65.48;98496.09;5101113;28;20418;-75
2022/10/03 08:37:22;;;;;;;9.23;4.20;;;19.90;96.40;;;19.97;65.12;98499.41;5100557;28;20042;-75
2022/10/03 08:40:34;;;;;;;9.20;3.88;;;19.90;96.40;;;20.00;65.00;98498.75;5097312;28;20518;-75
2022/10/03 08:43:21;;;;;;;8.50;5.10;;;19.90;96.30;;;20.00;64.61;98493.25;5100933;28;20061;-75
2022/10/03 08:46:35;;;;;;;7.53;4.00;;;20.00;96.30;;;19.91;65.46;98492.56;5092672;28;20047;-75
2022/10/03 08:49:54;;;;;;;11.88;5.18;;;20.00;96.40;;;20.01;65.23;98494.84;5085240;28;20075;-75
2022/10/03 08:52:37;;;;;;;12.70;5.03;;;19.90;96.30;;;19.96;65.26;98497.81;5072584;28;20616;-75
2022/10/03 08:55:37;;;;;;;10.73;4.93;;;19.90;96.30;;;19.98;65.38;98503.00;5081445;28;20199;-75
2022/10/03 08:58:59;;;;;;;8.30;4.30;;;20.00;96.30;;;20.03;64.64;98506.31;5101130;28;20146;-75
2022/10/03 09:01:43;;;;;;;8.88;3.75;;;20.00;96.30;;;20.09;64.71;98506.91;5064179;28;20116;-75
2022/10/03 09:04:20;;;;;;;7.55;4.40;;;20.00;96.40;;;20.10;64.46;98506.56;5028286;28;20060;-75
2022/10/03 09:07:17;;;;;;;7.97;4.45;;;20.00;96.40;;;20.10;64.72;98501.06;5089899;28;20615;-75
2022/10/03 09:10:01;;;;;;;6.88;4.10;;;20.00;96.30;;;20.06;64.67;98502.88;5094373;28;20086;-75
2022/10/03 09:13:08;;;;;;;7.28;3.90;;;20.00;96.30;;;20.09;64.33;98498.63;5095175;28;20473;-75
2022/10/03 09:16:19;;;;;;;8.38;4.78;;;20.00;96.30;;;20.06;64.58;98493.81;5100442;28;20044;-75
2022/10/03 09:19:25;;;;;;;10.00;4.13;;;20.00;96.20;;;20.09;64.93;98487.63;5094233;28;20130;-75
2022/10/03 09:22:38;;;;;;;12.35;4.72;;;20.10;96.30;;;20.12;64.77;98506.19;5095572;28;20495;-75
2022/10/03 09:26:05;;;;;;;8.50;4.72;;;20.10;96.30;;;20.14;64.44;98501.16;5076433;28;20052;-75
2022/10/03 09:28:58;;;;;;;9.25;4.50;;;20.10;96.20;;;20.25;63.52;98505.06;5083881;27;20055;-75
2022/10/03 09:32:13;;;;;;;6.97;4.07;;;20.20;96.20;;;20.23;63.58;98506.56;5095295;28;20044;-75
2022/10/03 09:35:21;;;;;;;6.05;3.42;;;20.20;96.10;;;20.32;63.11;98490.72;5098654;28;20078;-75
2022/10/03 09:38:11;;;;;;;7.80;3.47;;;20.20;96.20;;;20.36;63.12;98502.66;5096973;28;20145;-75
2022/10/03 09:40:58;;;;;;;4.95;2.95;;;20.20;96.10;;;20.30;63.38;98510.34;5095087;28;20419;-75
2022/10/03 09:44:24;;;;;;;7.63;4.25;;;20.20;96.10;;;20.33;62.94;98506.09;5092500;28;20051;-75
2022/10/03 09:47:25;;;;;;;6.63;3.50;;;20.20;96.00;;;20.31;63.17;98505.66;5079696;28;20047;-75
2022/10/03 09:50:31;;;;;;;9.60;4.97;;;20.30;96.00;;;20.28;63.45;98509.88;5096875;28;20048;-75
2022/10/03 09:53:40;;;;;;;7.55;4.07;;;20.30;96.10;;;20.21;63.45;98514.38;5095295;28;20051;-75
2022/10/03 09:56:24;;;;;;;7.53;3.30;;;20.30;96.00;;;20.24;63.22;98513.69;5095256;28;20123;-75
2022/10/03 09:59:30;;;;;;;4.13;3.38;;;20.30;96.00;;;20.23;63.31;98514.84;5096538;28;20056;-75
2022/10/03 10:02:53;;;;;;;7.75;3.63;;;20.30;96.00;;;20.21;63.12;98508.84;5095351;28;20048;-75
2022/10/03 10:06:06;;;;;;;5.80;3.15;;;20.20;95.90;;;20.17;63.55;98512.31;5093503;28;20040;-75
2022/10/03 10:09:07;;;;;;;6.03;3.88;;;20.30;96.00;;;20.19;63.54;98506.44;5097197;28;20081;-75
2022/10/03 10:12:36;;;;;;;6.90;3.72;;;20.30;96.00;;;20.16;63.78;98496.91;5080732;28;20050;-75
2022/10/03 10:15:17;;;;;;;6.13;3.35;;;20.30;96.00;;;20.15;63.73;98497.28;5066178;28;20056;-75
2022/10/03 10:18:46;;;;;;;8.63;4.17;;;20.20;95.90;;;20.11;63.84;98499.91;5096060;28;20101;-75
2022/10/03 10:21:36;;;;;;;8.90;4.30;;;20.20;95.80;;;20.09;63.96;98495.88;5049730;28;20060;-75
2022/10/03 10:24:30;;;;;;;5.18;3.10;;;20.20;95.90;;;20.08;64.00;98500.59;5092477;28;20090;-75
2022/10/03 10:27:30;;;;;;;7.85;3.42;;;20.20;96.00;;;20.13;63.94;98511.38;5094871;28;20046;-75
2022/10/03 10:30:14;;;;;;;6.15;3.97;;;20.20;96.00;;;20.13;63.88;98516.88;5094108;28;20044;-75
2022/10/03 10:33:43;;;;;;;5.90;3.05;;;20.30;96.00;;;20.15;63.65;98513.81;5102229;28;20131;-75
2022/10/03 10:36:35;;;;;;;5.20;2.97;;;20.30;95.90;;;20.13;63.91;98524.34;5072595;28;20052;-75
2022/10/03 10:39:26;;;;;;;4.88;3.05;;;20.20;95.90;;;20.13;64.14;98518.84;5095950;28;20047;-75
2022/10/03 10:42:57;;;;;;;7.68;4.07;;;20.20;96.00;;;20.10;64.42;98517.59;5075345;28;20539;-75
2022/10/03 10:46:16;;;;;;;5.00;3.63;;;20.20;96.00;;;20.10;64.19;98522.28;5083179;28;20055;-75
2022/10/03 10:49:23;;;;;;;8.73;4.35;;;20.20;96.00;;;20.09;64.41;98524.22;5095198;28;20137;-75
2022/10/03 10:52:36;;;;;;;6.97;3.83;;;20.20;96.00;;;20.07;64.42;98521.00;5076033;28;20139;-75
2022/10/03 10:55:59;;;;;;;13.95;4.38;;;20.30;96.00;;;20.10;64.12;98520.34;5092298;28;20521;-75
2022/10/03 10:59:08;;;;;;;11.43;5.45;;;20.20;96.10;;;20.12;64.52;98514.47;5097175;28;20494;-75
2022/10/03 11:01:48;;;;;;;13.63;5.00;;;20.20;96.10;;;20.15;64.15;98522.84;5097395;28;20096;-75
2022/10/03 11:04:51;;;;;;;16.10;6.00;;;20.30;96.10;;;20.14;64.13;98512.97;5097976;28;20048;-75
2022/10/03 11:08:01;;;;;;;11.63;5.10;;;20.20;96.00;;;20.15;63.97;98514.59;5098903;28;20032;-75
2022/10/03 11:11:08;;;;;;;16.00;5.53;;;20.30;96.00;;;20.15;64.24;98522.06;5069594;28;20047;-75
2022/10/03 11:14:20;;;;;;;17.77;6.82;;;20.30;96.00;;;20.15;64.50;98522.06;5077730;28;20087;-75
2022/10/03 11:17:10;;;;;;;18.45;7.00;;;20.20;96.10;;;20.17;64.31;98525.25;5096936;28;20043;-76
2022/10/03 11:20:04;;;;;;;15.02;6.80;;;20.30;96.20;;;20.20;63.94;98537.53;5078571;28;20399;-76
2022/10/03 11:22:58;;;;;;;16.83;7.20;;;20.30;96.10;;;20.20;64.00;98534.78;5102867;28;20110;-75
2022/10/03 11:26:20;;;;;;;17.83;6.70;;;20.30;96.10;;;20.20;63.93;98541.09;5099619;28;20390;-76
2022/10/03 11:29:21;;;;;;;16.25;7.47;;;20.30;96.00;;;20.24;63.87;98538.47;5097845;28;20044;-76
2022/10/03 11:32:23;;;;;;;23.40;9.93;;;20.30;96.10;;;20.26;63.88;98550.75;5102167;28;20046;-76
2022/10/03 11:35:28;;;;;;;23.65;8.95;;;20.30;96.10;;;20.28;63.69;98542.16;5102452;28;20224;-76
2022/10/03 11:38:29;;;;;;;21.27;7.20;;;20.30;96.00;;;20.24;63.87;98552.22;5099944;28;20044;-76
2022/10/03 11:41:46;;;;;;;20.52;7.43;;;20.30;96.00;;;20.24;63.69;98543.97;5096724;28;20422;-76
2022/10/03 11:44:16;;;;;;;18.60;8.10;;;20.30;96.00;;;20.24;63.95;98544.75;5079828;28;20517;-76
2022/10/03 11:47:07;;;;;;;20.52;8.98;;;20.30;96.00;;;20.32;63.71;98543.84;5097439;28;20251;-76
2022/10/03 11:49:46;;;;;;;19.98;8.57;;;20.30;96.10;;;20.34;63.33;98547.06;5098632;28;20092;-76
2022/10/03 11:52:17;;;;;;;18.55;7.25;;;20.30;96.00;;;20.33;63.03;98541.91;5097214;28;20150;-76
2022/10/03 11:54:45;;;;;;;27.23;9.70;;;20.40;96.00;;;20.32;63.11;98549.34;5089654;28;20085;-76
2022/10/03 11:57:30;;;;;;;20.05;7.75;;;20.40;96.00;;;20.41;62.62;98557.50;5080538;28;20558;-76
2022/10/03 12:00:02;;;;;;;21.60;9.13;;;20.40;95.90;;;20.41;62.89;98548.44;5082765;28;20043;-76
2022/10/03 12:02:43;;;;;;;22.00;9.63;;;20.40;96.00;;;20.37;63.23;98546.38;5095498;28;20155;-76
2022/10/03 12:08:53;;;;;;;25.85;10.18;;;20.40;96.00;;;20.33;63.27;98550.19;5099330;28;20036;-76
2022/10/03 12:09:09;;;;;;;27.20;9.70;;;20.40;96.00;;;20.30;63.38;98548.09;5099312;28;20043;-76
2022/10/03 12:11:53;;;;;;;23.85;9.23;;;20.40;95.90;;;20.31;63.09;98552.47;5096419;28;20036;-76
2022/10/03 12:14:47;;;;;;;20.55;8.57;;;20.40;95.90;;;20.26;63.42;98555.44;5089759;28;20039;-76
2022/10/03 12:17:25;;;;;;;21.83;9.95;;;20.40;96.00;;;20.27;63.53;98555.09;5067037;28;20052;-76
2022/10/03 12:20:30;;;;;;;18.35;10.23;;;20.40;96.00;;;20.27;63.68;98557.03;5055285;28;20386;-76
2022/10/03 12:23:24;;;;;;;23.52;9.40;;;20.40;96.00;;;20.30;63.53;98564.63;5086226;28;20351;-76
2022/10/03 12:25:50;;;;;;;19.65;9.35;;;20.40;96.20;;;20.31;63.25;98569.78;5080849;28;20200;-76
2022/10/03 12:28:24;;;;;;;21.95;9.05;;;20.40;95.90;;;20.32;63.08;98570.59;5081132;28;20044;-76